Time;durP1;ratioP1;P1;durP2;ratioP2;P2;SDS_P1;SDS_P2;PMS_P1;PMS_P2;Temp;Humidity;BMP_temperature;BMP_pressure;BME280_temperature;BME280_humidity;BME280_pressure;Samples;Min_cycle;Max_cycle;Signal;HPM_P1;HPM_P2
2023/06/18 05:12:11;;;;;;;;;;;;;;;;;;5090725;28;19954;-40
2023/06/18 05:14:37;;;;;;;;;;;;;;;;;;5091427;28;19912;-39
2023/06/18 05:17:03;;;;;;;;;;;;;;;;;;5091551;28;19916;-39
2023/06/18 05:19:29;;;;;;;;;;;;;;;;;;5091756;28;20631;-39
2023/06/18 05:21:57;;;;;;;;;;;;;;;;;;5091387;28;19912;-39
2023/06/18 05:24:23;;;;;;;;;;;;;;;;;;5091247;28;19958;-39
2023/06/18 05:26:48;;;;;;;;;;;;;;;;;;5091328;28;19916;-39
2023/06/18 05:29:14;;;;;;;;;;;;;;;;;;5091184;28;20006;-39
2023/06/18 05:31:40;;;;;;;;;;;;;;;;;;5091366;28;20303;-39
2023/06/18 05:34:06;;;;;;;;;;;;;;;;;;5091239;28;19912;-39
2023/06/18 05:36:32;;;;;;;;;;;;;;;;;;5091227;28;20396;-39
2023/06/18 05:38:59;;;;;;;;;;;;;;;;;;5091135;28;19919;-39
2023/06/18 05:41:25;;;;;;;;;;;;;;;;;;5091230;28;19954;-39
2023/06/18 05:43:51;;;;;;;;;;;;;;;;;;5090919;28;19957;-39
2023/06/18 05:46:18;;;;;;;;;;;;;;;;;;5091039;28;20335;-39
2023/06/18 05:48:44;;;;;;;;;;;;;;;;;;5099630;28;19907;-39
2023/06/18 05:51:10;;;;;;;;;;;;;;;;;;5114208;28;19994;-40
2023/06/18 05:53:36;;;;;;;;;;;;;;;;;;5114314;28;19923;-39
2023/06/18 05:56:01;;;;;;;;;;;;;;;;;;5100481;28;20448;-39
2023/06/18 05:58:27;;;;;;;;;;;;;;;;;;5090000;28;19908;-40
2023/06/18 06:00:53;;;;;;;;;;;;;;;;;;5090717;28;20411;-39
2023/06/18 06:03:19;;;;;;;;;;;;;;;;;;5090843;28;19919;-39
2023/06/18 06:05:46;;;;;;;;;;;;;;;;;;5090744;28;19912;-39
2023/06/18 06:08:13;;;;;;;;;;;;;;;;;;5090785;28;19908;-39
2023/06/18 06:10:40;;;;;;;;;;;;;;;;;;5090112;28;19916;-39
2023/06/18 06:13:06;;;;;;;;;;;;;;;;;;5090485;28;20436;-39
2023/06/18 06:15:32;;;;;;;;;;;;;;;;;;5090516;28;19908;-39
2023/06/18 06:17:58;;;;;;;;;;;;;;;;;;5090640;28;19908;-39
2023/06/18 06:20:24;;;;;;;;;;;;;;;;;;5089189;28;19930;-39
2023/06/18 06:22:51;;;;;;;;;;;;;;;;;;5089974;28;19959;-39
2023/06/18 06:25:16;;;;;;;;;;;;;;;;;;5090284;28;19908;-39
2023/06/18 06:27:43;;;;;;;;;;;;;;;;;;5090147;28;19908;-39
2023/06/18 06:30:10;;;;;;;;;;;;;;;;;;5089777;28;19916;-40
2023/06/18 06:32:35;;;;;;;;;;;;;;;;;;5089858;28;19908;-40
2023/06/18 06:35:02;;;;;;;;;;;;;;;;;;5090283;28;19915;-40
2023/06/18 06:37:29;;;;;;;;;;;;;;;;;;5086640;28;19919;-42
2023/06/18 06:39:55;;;;;;;;;;;;;;;;;;5088813;28;19916;-41
2023/06/18 06:42:21;;;;;;;;;;;;;;;;;;5091127;28;19915;-40
2023/06/18 06:44:47;;;;;;;;;;;;;;;;;;5091146;28;20029;-41
2023/06/18 06:47:13;;;;;;;;;;;;;;;;;;5084644;28;19912;-42
2023/06/18 06:49:38;;;;;;;;;;;;;;;;;;5090666;28;19916;-41
2023/06/18 06:52:04;;;;;;;;;;;;;;;;;;5090898;28;20002;-41
2023/06/18 06:54:30;;;;;;;;;;;;;;;;;;5091312;28;19923;-41
2023/06/18 06:56:56;;;;;;;;;;;;;;;;;;5090956;28;19908;-42
2023/06/18 06:59:22;;;;;;;;;;;;;;;;;;5090738;28;20016;-43
2023/06/18 07:01:48;;;;;;;;;;;;;;;;;;5090938;28;19915;-43
2023/06/18 07:04:14;;;;;;;;;;;;;;;;;;5090680;28;19908;-41
2023/06/18 07:06:40;;;;;;;;;;;;;;;;;;5090548;28;19913;-40
2023/06/18 07:09:06;;;;;;;;;;;;;;;;;;5090004;28;19912;-41
2023/06/18 07:11:33;;;;;;;;;;;;;;;;;;5077870;28;19912;-40
2023/06/18 07:13:59;;;;;;;;;;;;;;;;;;5085648;28;20442;-43
2023/06/18 07:16:24;;;;;;;;;;;;;;;;;;5091246;28;21177;-41
2023/06/18 07:18:50;;;;;;;;;;;;;;;;;;5087791;28;19912;-41
2023/06/18 07:21:16;;;;;;;;;;;;;;;;;;5087560;28;19943;-41
2023/06/18 07:23:42;;;;;;;;;;;;;;;;;;5086471;28;20303;-43
2023/06/18 07:26:08;;;;;;;;;;;;;;;;;;5087696;28;19909;-41
2023/06/18 07:28:34;;;;;;;;;;;;;;;;;;5086174;28;20380;-41
2023/06/18 07:31:00;;;;;;;;;;;;;;;;;;5087358;28;19948;-41
2023/06/18 07:33:26;;;;;;;;;;;;;;;;;;5084588;28;19951;-41
2023/06/18 07:35:52;;;;;;;;;;;;;;;;;;5086483;28;19919;-40
2023/06/18 07:38:18;;;;;;;;;;;;;;;;;;5086973;28;20343;-41
2023/06/18 07:40:44;;;;;;;;;;;;;;;;;;5086778;28;19908;-41
2023/06/18 07:43:10;;;;;;;;;;;;;;;;;;5087794;28;19919;-41
2023/06/18 07:45:36;;;;;;;;;;;;;;;;;;5085848;28;19962;-42
2023/06/18 07:48:02;;;;;;;;;;;;;;;;;;5085877;28;19912;-41
2023/06/18 07:50:29;;;;;;;;;;;;;;;;;;5087078;28;19965;-42
2023/06/18 07:52:56;;;;;;;;;;;;;;;;;;5085819;28;20308;-41
2023/06/18 07:55:22;;;;;;;;;;;;;;;;;;5086578;28;19908;-42
2023/06/18 07:57:49;;;;;;;;;;;;;;;;;;5086593;28;20308;-41
2023/06/18 08:00:15;;;;;;;;;;;;;;;;;;5085721;28;20377;-41
2023/06/18 08:02:41;;;;;;;;;;;;;;;;;;5087008;28;19964;-41
2023/06/18 08:05:07;;;;;;;;;;;;;;;;;;5086749;28;20005;-41
2023/06/18 08:07:33;;;;;;;;;;;;;;;;;;5086421;28;20478;-40
2023/06/18 08:09:58;;;;;;;;;;;;;;;;;;5086592;28;20029;-41
2023/06/18 08:12:25;;;;;;;;;;;;;;;;;;5086344;28;20111;-41
2023/06/18 08:14:52;;;;;;;;;;;;;;;;;;5082654;28;20078;-41
2023/06/18 08:17:18;;;;;;;;;;;;;;;;;;5078739;28;19919;-41
2023/06/18 08:19:45;;;;;;;;;;;;;;;;;;5079687;28;19916;-40
2023/06/18 08:22:12;;;;;;;;;;;;;;;;;;5087096;28;21339;-41
2023/06/18 08:24:38;;;;;;;;;;;;;;;;;;5087408;28;19912;-41
2023/06/18 08:27:04;;;;;;;;;;;;;;;;;;5083623;28;19970;-41
2023/06/18 08:29:30;;;;;;;;;;;;;;;;;;5086122;28;19927;-44
2023/06/18 08:31:59;;;;;;;;;;;;;;;;;;5087310;28;20385;-41
2023/06/18 08:34:25;;;;;;;;;;;;;;;;;;5086192;28;19958;-41
2023/06/18 08:36:51;;;;;;;;;;;;;;;;;;5085776;28;19959;-41
2023/06/18 08:39:17;;;;;;;;;;;;;;;;;;5085729;28;19912;-41
2023/06/18 08:41:45;;;;;;;;;;;;;;;;;;5086698;28;19915;-41
2023/06/18 08:44:11;;;;;;;;;;;;;;;;;;5083152;28;19912;-41
2023/06/18 08:46:37;;;;;;;;;;;;;;;;;;5086505;28;20206;-41
2023/06/18 08:49:04;;;;;;;;;;;;;;;;;;5085160;28;19916;-41
2023/06/18 08:51:29;;;;;;;;;;;;;;;;;;5087052;28;19911;-41
2023/06/18 08:53:55;;;;;;;;;;;;;;;;;;5084862;28;19916;-41
2023/06/18 08:56:21;;;;;;;;;;;;;;;;;;5087034;28;19961;-40
2023/06/18 08:58:47;;;;;;;;;;;;;;;;;;5085941;28;19920;-41
2023/06/18 09:01:13;;;;;;;;;;;;;;;;;;5084979;28;19920;-40
2023/06/18 09:03:40;;;;;;;;;;;;;;;;;;5086693;28;19923;-40
2023/06/18 09:06:06;;;;;;;;;;;;;;;;;;5087277;28;19913;-41
2023/06/18 09:08:33;;;;;;;;;;;;;;;;;;5081703;28;19912;-41
2023/06/18 09:10:59;;;;;;;;;;;;;;;;;;5080921;28;19958;-41
2023/06/18 09:13:25;;;;;;;;;;;;;;;;;;5066574;28;19956;-42
2023/06/18 09:15:50;;;;;;;;;;;;;;;;;;5051284;28;19912;-41
2023/06/18 09:18:16;;;;;;;;;;;;;;;;;;5066096;28;20019;-41
2023/06/18 09:20:43;;;;;;;;;;;;;;;;;;5065866;28;19920;-41
2023/06/18 09:23:10;;;;;;;;;;;;;;;;;;5066732;28;20343;-41
2023/06/18 09:25:36;;;;;;;;;;;;;;;;;;5067724;28;20377;-41
2023/06/18 09:28:02;;;;;;;;;;;;;;;;;;5065487;28;19919;-41
2023/06/18 09:30:28;;;;;;;;;;;;;;;;;;5073690;28;20261;-41
2023/06/18 09:32:57;;;;;;;;;;;;;;;;;;5066193;28;19959;-42
2023/06/18 09:35:23;;;;;;;;;;;;;;;;;;5047281;28;19996;-41
2023/06/18 09:37:49;;;;;;;;;;;;;;;;;;5059515;28;19999;-42
2023/06/18 09:40:16;;;;;;;;;;;;;;;;;;5066495;28;19938;-42
2023/06/18 09:42:42;;;;;;;;;;;;;;;;;;5066810;28;19958;-42
2023/06/18 09:45:08;;;;;;;;;;;;;;;;;;5066458;28;19908;-41
2023/06/18 09:47:33;;;;;;;;;;;;;;;;;;5065362;28;19938;-42
2023/06/18 09:50:00;;;;;;;;;;;;;;;;;;5066186;28;19912;-41
2023/06/18 09:52:26;;;;;;;;;;;;;;;;;;5064747;28;19912;-40
2023/06/18 09:54:52;;;;;;;;;;;;;;;;;;5067317;28;20460;-40
2023/06/18 09:57:18;;;;;;;;;;;;;;;;;;5069878;28;19909;-41
2023/06/18 09:59:44;;;;;;;;;;;;;;;;;;5069016;28;19916;-43
2023/06/18 10:02:13;;;;;;;;;;;;;;;;;;5066240;28;19994;-41
2023/06/18 10:04:39;;;;;;;;;;;;;;;;;;5069219;28;20303;-40
2023/06/18 10:07:05;;;;;;;;;;;;;;;;;;5069160;28;20000;-41
2023/06/18 10:09:31;;;;;;;;;;;;;;;;;;5067877;28;19930;-42
2023/06/18 10:31:11;;;;;;;;;;;;;;;;;;5088260;28;19919;-40
2023/06/18 10:33:37;;;;;;;;;;;;;;;;;;5089776;28;19916;-39
2023/06/18 10:36:03;;;;;;;;;;;;;;;;;;5090952;28;19908;-40
2023/06/18 10:38:30;;;;;;;;;;;;;;;;;;5086235;28;19920;-40
2023/06/18 10:40:56;;;;;;;;;;;;;;;;;;5090517;28;19970;-40
2023/06/18 10:43:22;;;;;;;;;;;;;;;;;;5081318;28;19948;-39
2023/06/18 10:45:47;;;;;;;;;;;;;;;;;;5070485;28;19908;-39
2023/06/18 10:48:15;;;;;;;;;;;;;;;;;;5070758;28;19908;-40
2023/06/18 10:50:42;;;;;;;;;;;;;;;;;;5070588;28;19983;-40
2023/06/18 10:53:07;;;;;;;;;;;;;;;;;;5070524;28;20551;-39
2023/06/18 10:55:33;;;;;;;;;;;;;;;;;;5070509;28;19913;-39
2023/06/18 10:58:00;;;;;;;;;;;;;;;;;;5070334;28;19951;-40
2023/06/18 11:00:29;;;;;;;;;;;;;;;;;;5070402;28;20254;-40
2023/06/18 11:02:56;;;;;;;;;;;;;;;;;;5070402;28;19916;-39
2023/06/18 11:05:22;;;;;;;;;;;;;;;;;;5070198;28;19919;-39
2023/06/18 11:07:48;;;;;;;;;;;;;;;;;;5069336;28;19909;-39
2023/06/18 11:10:14;;;;;;;;;;;;;;;;;;5070123;28;19912;-40
2023/06/18 11:12:40;;;;;;;;;;;;;;;;;;5089788;28;20003;-39
2023/06/18 11:15:06;;;;;;;;;;;;;;;;;;5090082;28;19920;-39
2023/06/18 11:17:32;;;;;;;;;;;;;;;;;;5090422;28;19919;-40
2023/06/18 11:19:58;;;;;;;;;;;;;;;;;;5090230;28;20300;-40
2023/06/18 11:22:24;;;;;;;;;;;;;;;;;;5090341;28;19908;-40
2023/06/18 11:24:49;;;;;;;;;;;;;;;;;;5090501;28;19912;-40
2023/06/18 11:27:15;;;;;;;;;;;;;;;;;;5090074;28;20376;-42
2023/06/18 11:29:41;;;;;;;;;;;;;;;;;;5090521;28;19916;-40
2023/06/18 11:32:07;;;;;;;;;;;;;;;;;;5088341;28;19967;-39
2023/06/18 11:34:33;;;;;;;;;;;;;;;;;;5068085;28;19912;-39
2023/06/18 11:36:59;;;;;;;;;;;;;;;;;;5086006;28;19920;-40
2023/06/18 11:39:26;;;;;;;;;;;;;;;;;;5083865;28;19965;-39
2023/06/18 11:41:53;;;;;;;;;;;;;;;;;;5088439;28;20351;-39
2023/06/18 11:44:19;;;;;;;;;;;;;;;;;;5087541;28;19916;-40
2023/06/18 11:46:45;;;;;;;;;;;;;;;;;;5085990;28;19912;-40
2023/06/18 11:49:10;;;;;;;;;;;;;;;;;;5086196;28;20415;-39
2023/06/18 11:51:36;;;;;;;;;;;;;;;;;;5086422;28;19944;-39
2023/06/18 11:54:02;;;;;;;;;;;;;;;;;;5088367;28;20416;-39
2023/06/18 11:56:28;;;;;;;;;;;;;;;;;;5087168;28;19923;-39
2023/06/18 11:58:54;;;;;;;;;;;;;;;;;;5085663;28;20407;-40
2023/06/18 12:01:20;;;;;;;;;;;;;;;;;;5086422;28;20011;-41
2023/06/18 12:03:47;;;;;;;;;;;;;;;;;;5085211;28;20400;-39
2023/06/18 12:06:14;;;;;;;;;;;;;;;;;;5087137;28;20426;-41
2023/06/18 12:08:40;;;;;;;;;;;;;;;;;;5088243;28;20355;-40
2023/06/18 12:11:07;;;;;;;;;;;;;;;;;;5087019;28;20015;-39
2023/06/18 12:13:33;;;;;;;;;;;;;;;;;;5087698;28;20320;-40
2023/06/18 12:15:59;;;;;;;;;;;;;;;;;;5086504;28;19941;-40
2023/06/18 12:18:25;;;;;;;;;;;;;;;;;;5084487;28;19913;-39
2023/06/18 12:20:52;;;;;;;;;;;;;;;;;;5083462;28;19916;-40
2023/06/18 12:23:19;;;;;;;;;;;;;;;;;;5085233;28;19924;-40
2023/06/18 12:25:45;;;;;;;;;;;;;;;;;;5086360;28;19912;-40
2023/06/18 12:28:11;;;;;;;;;;;;;;;;;;5086774;28;20659;-40
2023/06/18 12:30:38;;;;;;;;;;;;;;;;;;5086786;28;19927;-40
2023/06/18 12:33:05;;;;;;;;;;;;;;;;;;5085741;28;19916;-39
2023/06/18 12:35:31;;;;;;;;;;;;;;;;;;5085285;28;19916;-40
2023/06/18 12:37:57;;;;;;;;;;;;;;;;;;5083872;28;19920;-40
2023/06/18 12:40:23;;;;;;;;;;;;;;;;;;5079487;28;19920;-42
2023/06/18 12:42:49;;;;;;;;;;;;;;;;;;5083054;28;19969;-43
2023/06/18 12:45:15;;;;;;;;;;;;;;;;;;5085218;28;19947;-40
2023/06/18 12:47:42;;;;;;;;;;;;;;;;;;5085655;28;19912;-40
2023/06/18 12:50:07;;;;;;;;;;;;;;;;;;5082675;28;19928;-40
2023/06/18 12:52:33;;;;;;;;;;;;;;;;;;5084701;28;19963;-39
2023/06/18 12:55:00;;;;;;;;;;;;;;;;;;5086067;28;20285;-39
2023/06/18 12:57:27;;;;;;;;;;;;;;;;;;5085305;28;20383;-40
2023/06/18 12:59:53;;;;;;;;;;;;;;;;;;5084779;28;19916;-40
2023/06/18 13:02:18;;;;;;;;;;;;;;;;;;5085474;28;20028;-42
2023/06/18 13:04:45;;;;;;;;;;;;;;;;;;5086070;28;19912;-39
2023/06/18 13:07:12;;;;;;;;;;;;;;;;;;5083664;28;19962;-40
2023/06/18 13:09:38;;;;;;;;;;;;;;;;;;5085243;28;20295;-40
2023/06/18 13:12:04;;;;;;;;;;;;;;;;;;5085776;28;20412;-39
2023/06/18 13:14:30;;;;;;;;;;;;;;;;;;5087220;28;19958;-40
2023/06/18 13:17:01;;;;;;;;;;;;;;;;;;5083401;28;19912;-40
2023/06/18 13:19:27;;;;;;;;;;;;;;;;;;5083629;28;20403;-40
2023/06/18 13:21:53;;;;;;;;;;;;;;;;;;5083168;28;19921;-40
2023/06/18 13:24:20;;;;;;;;;;;;;;;;;;5084598;28;20457;-40
2023/06/18 13:26:46;;;;;;;;;;;;;;;;;;5075886;28;19919;-39
2023/06/18 13:29:13;;;;;;;;;;;;;;;;;;5084931;28;19916;-40
2023/06/18 13:31:40;;;;;;;;;;;;;;;;;;5088603;28;19920;-40
2023/06/18 13:34:06;;;;;;;;;;;;;;;;;;5085809;28;19981;-39
2023/06/18 13:36:33;;;;;;;;;;;;;;;;;;5086147;28;20457;-39
2023/06/18 13:39:00;;;;;;;;;;;;;;;;;;5088521;28;19927;-41
2023/06/18 13:41:27;;;;;;;;;;;;;;;;;;5082252;28;20377;-39
2023/06/18 13:43:53;;;;;;;;;;;;;;;;;;5084837;28;19912;-39
2023/06/18 13:46:20;;;;;;;;;;;;;;;;;;5087752;28;20022;-41
2023/06/18 13:48:45;;;;;;;;;;;;;;;;;;5088645;28;19951;-40
2023/06/18 13:51:11;;;;;;;;;;;;;;;;;;5089663;28;20390;-40
2023/06/18 13:53:38;;;;;;;;;;;;;;;;;;5087655;28;19948;-40
2023/06/18 13:56:04;;;;;;;;;;;;;;;;;;5088784;28;19934;-39
2023/06/18 13:58:30;;;;;;;;;;;;;;;;;;5090655;28;20393;-41
2023/06/18 14:00:56;;;;;;;;;;;;;;;;;;5088965;28;19951;-41
2023/06/18 14:03:22;;;;;;;;;;;;;;;;;;5089822;28;19955;-41
2023/06/18 14:05:48;;;;;;;;;;;;;;;;;;5090426;28;20441;-40
2023/06/18 14:08:14;;;;;;;;;;;;;;;;;;5090048;28;19908;-40
2023/06/18 14:10:40;;;;;;;;;;;;;;;;;;5089613;28;19924;-40
2023/06/18 14:13:06;;;;;;;;;;;;;;;;;;5090396;28;20061;-39
2023/06/18 14:15:32;;;;;;;;;;;;;;;;;;5090160;28;19908;-40
2023/06/18 14:17:58;;;;;;;;;;;;;;;;;;5089867;28;20447;-39
2023/06/18 14:20:24;;;;;;;;;;;;;;;;;;5087656;28;19919;-39
2023/06/18 14:22:51;;;;;;;;;;;;;;;;;;5089798;28;19959;-40
2023/06/18 14:25:17;;;;;;;;;;;;;;;;;;5089498;28;19935;-39
2023/06/18 14:27:42;;;;;;;;;;;;;;;;;;5089162;28;19912;-41
2023/06/18 14:30:09;;;;;;;;;;;;;;;;;;5089579;28;19916;-39
2023/06/18 14:32:35;;;;;;;;;;;;;;;;;;5088547;28;20333;-40
2023/06/18 14:35:02;;;;;;;;;;;;;;;;;;5089845;28;19908;-41
2023/06/18 14:37:28;;;;;;;;;;;;;;;;;;5089448;28;20039;-39
2023/06/18 14:39:55;;;;;;;;;;;;;;;;;;5087653;28;20357;-40
2023/06/18 14:42:20;;;;;;;;;;;;;;;;;;5086681;28;20422;-40
2023/06/18 14:44:46;;;;;;;;;;;;;;;;;;5089479;28;19908;-41
2023/06/18 14:47:12;;;;;;;;;;;;;;;;;;5089132;28;19955;-39
2023/06/18 14:49:38;;;;;;;;;;;;;;;;;;5088864;28;19967;-39
2023/06/18 14:52:05;;;;;;;;;;;;;;;;;;5088379;28;20410;-39
2023/06/18 14:54:31;;;;;;;;;;;;;;;;;;5089101;28;19912;-39
2023/06/18 14:56:57;;;;;;;;;;;;;;;;;;5088932;28;20323;-40
2023/06/18 14:59:23;;;;;;;;;;;;;;;;;;5100868;28;19922;-41
2023/06/18 15:01:51;;;;;;;;;;;;;;;;;;5086604;28;19973;-44
2023/06/18 15:04:17;;;;;;;;;;;;;;;;;;5086549;28;19966;-42
2023/06/18 15:06:44;;;;;;;;;;;;;;;;;;5087710;28;19938;-43
2023/06/18 15:09:10;;;;;;;;;;;;;;;;;;5084895;28;19962;-41
2023/06/18 15:11:36;;;;;;;;;;;;;;;;;;5086536;28;20368;-40
2023/06/18 15:14:02;;;;;;;;;;;;;;;;;;5084325;28;20340;-41
2023/06/18 15:16:31;;;;;;;;;;;;;;;;;;5086025;28;19912;-42
2023/06/18 15:18:57;;;;;;;;;;;;;;;;;;5079969;28;20404;-42
2023/06/18 15:21:23;;;;;;;;;;;;;;;;;;5085063;28;19958;-43
2023/06/18 15:23:49;;;;;;;;;;;;;;;;;;5086531;28;20364;-41
2023/06/18 15:26:15;;;;;;;;;;;;;;;;;;5085442;28;20011;-41
2023/06/18 15:28:42;;;;;;;;;;;;;;;;;;5083721;28;20011;-41
2023/06/18 15:31:08;;;;;;;;;;;;;;;;;;5086681;28;19962;-42
2023/06/18 15:33:34;;;;;;;;;;;;;;;;;;5086433;28;19920;-41
2023/06/18 15:36:00;;;;;;;;;;;;;;;;;;5084655;28;20319;-41
2023/06/18 15:38:27;;;;;;;;;;;;;;;;;;5084767;28;19920;-42
2023/06/18 15:40:53;;;;;;;;;;;;;;;;;;5086280;28;20408;-42
2023/06/18 15:43:19;;;;;;;;;;;;;;;;;;5072681;28;19920;-42
2023/06/18 15:45:45;;;;;;;;;;;;;;;;;;5080093;28;19916;-42
2023/06/18 15:48:15;;;;;;;;;;;;;;;;;;5083038;28;19992;-42
2023/06/18 15:50:41;;;;;;;;;;;;;;;;;;5082920;28;19920;-42
2023/06/18 15:53:07;;;;;;;;;;;;;;;;;;5080203;28;20952;-43
2023/06/18 15:55:33;;;;;;;;;;;;;;;;;;5082168;28;19965;-42
2023/06/18 15:58:00;;;;;;;;;;;;;;;;;;5084232;28;19924;-42
2023/06/18 16:00:26;;;;;;;;;;;;;;;;;;5083638;28;19961;-43
2023/06/18 16:02:51;;;;;;;;;;;;;;;;;;5083309;28;20384;-43
2023/06/18 16:05:17;;;;;;;;;;;;;;;;;;5085231;28;19913;-42
2023/06/18 16:07:45;;;;;;;;;;;;;;;;;;5085885;28;20411;-43
2023/06/18 16:10:11;;;;;;;;;;;;;;;;;;5084454;28;20384;-44
2023/06/18 16:12:37;;;;;;;;;;;;;;;;;;5083253;28;19927;-42
2023/06/18 16:15:03;;;;;;;;;;;;;;;;;;5083868;28;20372;-42
2023/06/18 16:17:29;;;;;;;;;;;;;;;;;;5084395;28;19916;-42
2023/06/18 16:19:55;;;;;;;;;;;;;;;;;;5082552;28;20409;-41
2023/06/18 16:22:21;;;;;;;;;;;;;;;;;;5077437;28;19912;-42
2023/06/18 16:24:47;;;;;;;;;;;;;;;;;;5079852;28;21012;-42
2023/06/18 16:27:13;;;;;;;;;;;;;;;;;;5084351;28;19917;-42
2023/06/18 16:29:39;;;;;;;;;;;;;;;;;;5085138;28;19920;-42
2023/06/18 16:32:10;;;;;;;;;;;;;;;;;;5083885;28;19916;-42
2023/06/18 16:34:36;;;;;;;;;;;;;;;;;;5083729;28;20105;-42
2023/06/18 16:37:02;;;;;;;;;;;;;;;;;;5081269;28;20393;-42
2023/06/18 16:39:28;;;;;;;;;;;;;;;;;;5082810;28;19952;-44
2023/06/18 16:41:54;;;;;;;;;;;;;;;;;;5084056;28;20291;-41
2023/06/18 16:44:20;;;;;;;;;;;;;;;;;;5084794;28;19923;-42
2023/06/18 16:46:46;;;;;;;;;;;;;;;;;;5080785;28;20396;-44
2023/06/18 16:49:12;;;;;;;;;;;;;;;;;;5083621;28;19916;-44
2023/06/18 16:51:39;;;;;;;;;;;;;;;;;;5082819;28;19950;-42
2023/06/18 16:54:05;;;;;;;;;;;;;;;;;;5068317;28;19921;-43
2023/06/18 16:56:31;;;;;;;;;;;;;;;;;;5077720;28;19970;-42
2023/06/18 16:58:57;;;;;;;;;;;;;;;;;;5082863;28;19912;-43
2023/06/18 17:01:23;;;;;;;;;;;;;;;;;;5083024;28;19948;-45
2023/06/18 17:03:49;;;;;;;;;;;;;;;;;;5082402;28;19924;-42
2023/06/18 17:06:15;;;;;;;;;;;;;;;;;;5086349;28;20335;-43
2023/06/18 17:08:41;;;;;;;;;;;;;;;;;;5084939;28;19961;-43
2023/06/18 17:11:08;;;;;;;;;;;;;;;;;;5081413;28;20289;-45
2023/06/18 17:13:36;;;;;;;;;;;;;;;;;;5078228;28;19923;-42
2023/06/18 17:16:02;;;;;;;;;;;;;;;;;;5088093;28;20027;-44
2023/06/18 17:18:28;;;;;;;;;;;;;;;;;;5089928;28;20002;-43
2023/06/18 17:20:56;;;;;;;;;;;;;;;;;;5086466;28;19911;-44
2023/06/18 17:23:22;;;;;;;;;;;;;;;;;;5086414;28;19912;-42
2023/06/18 17:25:48;;;;;;;;;;;;;;;;;;5085854;28;19961;-42
2023/06/18 17:28:14;;;;;;;;;;;;;;;;;;5084708;28;20011;-43
2023/06/18 17:30:41;;;;;;;;;;;;;;;;;;5085034;28;19919;-42
2023/06/18 17:33:07;;;;;;;;;;;;;;;;;;5086883;28;19912;-44
2023/06/18 17:35:33;;;;;;;;;;;;;;;;;;5088222;28;19916;-42
2023/06/18 17:37:59;;;;;;;;;;;;;;;;;;5086900;28;20438;-41
2023/06/18 17:40:25;;;;;;;;;;;;;;;;;;5087710;28;19916;-42
2023/06/18 17:42:52;;;;;;;;;;;;;;;;;;5087171;28;20320;-42
2023/06/18 17:45:19;;;;;;;;;;;;;;;;;;5085412;28;19912;-42
2023/06/18 17:47:45;;;;;;;;;;;;;;;;;;5086673;28;19916;-43
2023/06/18 17:50:11;;;;;;;;;;;;;;;;;;5087619;28;19981;-43
2023/06/18 17:52:37;;;;;;;;;;;;;;;;;;5086610;28;20380;-41
2023/06/18 17:55:03;;;;;;;;;;;;;;;;;;5087312;28;19928;-42
2023/06/18 17:57:29;;;;;;;;;;;;;;;;;;5081201;28;19912;-41
2023/06/18 17:59:55;;;;;;;;;;;;;;;;;;5084777;28;19916;-44
2023/06/18 18:02:21;;;;;;;;;;;;;;;;;;5084695;28;20332;-43
2023/06/18 18:04:49;;;;;;;;;;;;;;;;;;5085458;28;19916;-41
2023/06/18 18:07:15;;;;;;;;;;;;;;;;;;5083972;28;20014;-43
2023/06/18 18:09:42;;;;;;;;;;;;;;;;;;5083829;28;20023;-42
2023/06/18 18:12:07;;;;;;;;;;;;;;;;;;5086123;28;20416;-42
2023/06/18 18:14:33;;;;;;;;;;;;;;;;;;5082541;28;19916;-44
2023/06/18 18:16:59;;;;;;;;;;;;;;;;;;5081105;28;19920;-44
2023/06/18 18:19:25;;;;;;;;;;;;;;;;;;5083190;28;19939;-42
2023/06/18 18:21:51;;;;;;;;;;;;;;;;;;5085240;28;19959;-42
2023/06/18 18:24:19;;;;;;;;;;;;;;;;;;5071684;28;19912;-42
2023/06/18 18:26:45;;;;;;;;;;;;;;;;;;5080015;28;19961;-42
2023/06/18 18:29:11;;;;;;;;;;;;;;;;;;5083847;28;19916;-42
2023/06/18 18:31:37;;;;;;;;;;;;;;;;;;5075236;28;19958;-43
2023/06/18 18:34:03;;;;;;;;;;;;;;;;;;5083793;28;20334;-43
2023/06/18 18:36:29;;;;;;;;;;;;;;;;;;5085674;28;20385;-43
2023/06/18 18:38:55;;;;;;;;;;;;;;;;;;5083918;28;19920;-43
2023/06/18 18:41:21;;;;;;;;;;;;;;;;;;5082971;28;20404;-42
2023/06/18 18:43:47;;;;;;;;;;;;;;;;;;5079935;28;19912;-42
2023/06/18 18:46:13;;;;;;;;;;;;;;;;;;5085653;28;19916;-41
2023/06/18 18:48:39;;;;;;;;;;;;;;;;;;5083758;28;19923;-42
2023/06/18 18:51:05;;;;;;;;;;;;;;;;;;5080406;28;20318;-42
2023/06/18 18:53:31;;;;;;;;;;;;;;;;;;5071115;28;19964;-43
2023/06/18 18:55:57;;;;;;;;;;;;;;;;;;5068221;28;19920;-42
2023/06/18 18:58:23;;;;;;;;;;;;;;;;;;5080284;28;20356;-43
2023/06/18 19:00:50;;;;;;;;;;;;;;;;;;5086297;28;19937;-42
2023/06/18 19:03:16;;;;;;;;;;;;;;;;;;5085499;28;20419;-42
2023/06/18 19:05:42;;;;;;;;;;;;;;;;;;5084456;28;19912;-42
2023/06/18 19:08:08;;;;;;;;;;;;;;;;;;5073319;28;19912;-44
2023/06/18 19:10:34;;;;;;;;;;;;;;;;;;5083198;28;19927;-43
2023/06/18 19:13:00;;;;;;;;;;;;;;;;;;5079751;28;19924;-42
2023/06/18 19:15:26;;;;;;;;;;;;;;;;;;5076085;28;19922;-41
2023/06/18 19:17:52;;;;;;;;;;;;;;;;;;5085795;28;19911;-41
2023/06/18 19:20:18;;;;;;;;;;;;;;;;;;5084412;28;19916;-43
2023/06/18 19:22:44;;;;;;;;;;;;;;;;;;5084936;28;19912;-43
2023/06/18 19:25:10;;;;;;;;;;;;;;;;;;5083836;28;19951;-43
2023/06/18 19:27:37;;;;;;;;;;;;;;;;;;5081898;28;20450;-44
2023/06/18 19:30:05;;;;;;;;;;;;;;;;;;5083148;28;19920;-43
2023/06/18 19:32:30;;;;;;;;;;;;;;;;;;5083202;28;20014;-43
2023/06/18 19:34:57;;;;;;;;;;;;;;;;;;5084016;28;19995;-42
2023/06/18 19:37:23;;;;;;;;;;;;;;;;;;5085171;28;19912;-42
2023/06/18 19:39:49;;;;;;;;;;;;;;;;;;5082977;28;20466;-43
2023/06/18 19:42:18;;;;;;;;;;;;;;;;;;5080938;28;19958;-43
2023/06/18 19:44:44;;;;;;;;;;;;;;;;;;5083858;28;19913;-42
2023/06/18 19:47:10;;;;;;;;;;;;;;;;;;5084796;28;19936;-42
2023/06/18 19:49:36;;;;;;;;;;;;;;;;;;5085045;28;19916;-42
2023/06/18 19:52:03;;;;;;;;;;;;;;;;;;5083087;28;20408;-42
2023/06/18 19:54:29;;;;;;;;;;;;;;;;;;5084754;28;20392;-42
2023/06/18 19:56:55;;;;;;;;;;;;;;;;;;5082809;28;19919;-43
2023/06/18 19:59:21;;;;;;;;;;;;;;;;;;5081175;28;21288;-42
2023/06/18 20:01:47;;;;;;;;;;;;;;;;;;5083275;28;19916;-41
2023/06/18 20:04:13;;;;;;;;;;;;;;;;;;5083728;28;19916;-44
2023/06/18 20:06:39;;;;;;;;;;;;;;;;;;5083826;28;19938;-43
2023/06/18 20:09:06;;;;;;;;;;;;;;;;;;5085604;28;19962;-42
2023/06/18 20:11:33;;;;;;;;;;;;;;;;;;5084118;28;19916;-42
2023/06/18 20:13:59;;;;;;;;;;;;;;;;;;5082154;28;19934;-41
2023/06/18 20:16:26;;;;;;;;;;;;;;;;;;5084938;28;20384;-41
2023/06/18 20:18:53;;;;;;;;;;;;;;;;;;5084237;28;19955;-41
2023/06/18 20:21:20;;;;;;;;;;;;;;;;;;5084704;28;19919;-42
2023/06/18 20:23:46;;;;;;;;;;;;;;;;;;5082016;28;19916;-43
2023/06/18 20:26:12;;;;;;;;;;;;;;;;;;5085783;28;19971;-42
2023/06/18 20:28:38;;;;;;;;;;;;;;;;;;5081704;28;19923;-41
2023/06/18 20:31:04;;;;;;;;;;;;;;;;;;5104548;28;19915;-41
2023/06/18 20:33:30;;;;;;;;;;;;;;;;;;5091141;28;20449;-41
2023/06/18 20:35:57;;;;;;;;;;;;;;;;;;5084644;28;19922;-42
2023/06/18 20:38:23;;;;;;;;;;;;;;;;;;5081042;28;19947;-42
2023/06/18 20:40:49;;;;;;;;;;;;;;;;;;5083317;28;19927;-42
2023/06/18 20:43:15;;;;;;;;;;;;;;;;;;5084245;28;19947;-43
2023/06/18 20:45:41;;;;;;;;;;;;;;;;;;5084922;28;20335;-46
2023/06/18 20:48:07;;;;;;;;;;;;;;;;;;5084559;28;19912;-43
2023/06/18 20:50:33;;;;;;;;;;;;;;;;;;5083976;28;19938;-43
2023/06/18 20:52:59;;;;;;;;;;;;;;;;;;5084723;28;19911;-43
2023/06/18 20:55:25;;;;;;;;;;;;;;;;;;5083714;28;20304;-42
2023/06/18 20:57:51;;;;;;;;;;;;;;;;;;5084270;28;19953;-42
2023/06/18 21:00:18;;;;;;;;;;;;;;;;;;5084373;28;20400;-43
2023/06/18 21:02:44;;;;;;;;;;;;;;;;;;5085106;28;19911;-42
2023/06/18 21:05:10;;;;;;;;;;;;;;;;;;5084977;28;19908;-42
2023/06/18 21:07:37;;;;;;;;;;;;;;;;;;5084397;28;19920;-42
2023/06/18 21:10:03;;;;;;;;;;;;;;;;;;5084232;28;20407;-41
2023/06/18 21:12:29;;;;;;;;;;;;;;;;;;5083809;28;19920;-43
2023/06/18 21:14:55;;;;;;;;;;;;;;;;;;5084425;28;19911;-44
2023/06/18 21:17:21;;;;;;;;;;;;;;;;;;5069460;28;19913;-42
2023/06/18 21:19:47;;;;;;;;;;;;;;;;;;5063512;28;19958;-42
2023/06/18 21:22:13;;;;;;;;;;;;;;;;;;5064804;28;20385;-42
2023/06/18 21:24:39;;;;;;;;;;;;;;;;;;5063993;28;19909;-44
2023/06/18 21:27:05;;;;;;;;;;;;;;;;;;5063915;28;19975;-43
2023/06/18 21:29:31;;;;;;;;;;;;;;;;;;5063684;28;19912;-42
2023/06/18 21:31:58;;;;;;;;;;;;;;;;;;5063819;28;20466;-42
2023/06/18 21:34:24;;;;;;;;;;;;;;;;;;5063661;28;20175;-42
2023/06/18 21:36:49;;;;;;;;;;;;;;;;;;5046235;28;19966;-43
2023/06/18 21:39:15;;;;;;;;;;;;;;;;;;5063575;28;20298;-43
2023/06/18 21:41:42;;;;;;;;;;;;;;;;;;5064576;28;19951;-43
2023/06/18 21:44:08;;;;;;;;;;;;;;;;;;5045691;28;19912;-41
2023/06/18 21:46:34;;;;;;;;;;;;;;;;;;5063933;28;20497;-44
2023/06/18 21:49:00;;;;;;;;;;;;;;;;;;5063967;28;20285;-41
2023/06/18 21:51:27;;;;;;;;;;;;;;;;;;5064460;28;19971;-40
2023/06/18 21:53:52;;;;;;;;;;;;;;;;;;5067198;28;19954;-42
2023/06/18 21:56:18;;;;;;;;;;;;;;;;;;5049404;28;19956;-42
2023/06/18 21:58:44;;;;;;;;;;;;;;;;;;5067909;28;20296;-41
2023/06/18 22:01:10;;;;;;;;;;;;;;;;;;5067393;28;19965;-43
2023/06/18 22:03:36;;;;;;;;;;;;;;;;;;5066613;28;19912;-42
2023/06/18 22:06:02;;;;;;;;;;;;;;;;;;5067171;28;19912;-44
2023/06/18 22:08:28;;;;;;;;;;;;;;;;;;5067061;28;19928;-42